Date,TemperatureHighF,TemperatureAvgF,TemperatureLowF,DewpointHighF,DewpointAvgF,DewpointLowF,HumidityHigh,HumidityAvg,HumidityLow,PressureMaxIn,PressureMinIn,WindSpeedMaxMPH,WindSpeedAvgMPH,GustSpeedMaxMPH,PrecipitationSumIn
2012-3-1,52.7,45.4,39.0,33.1,31.0,28.2,74,58,42,29.91,29.72,12,-3,13,0.28
2012-3-2,59.5,43.5,34.5,53.1,36.7,30.2,94,77,64,29.72,29.22,34,6,38,0.77
2012-3-3,35.2,33.3,30.7,30.6,24.8,21.6,85,71,61,29.91,29.70,24,6,24,0.00
2012-3-4,39.7,32.1,27.0,26.8,21.9,18.7,90,67,44,30.00,29.86,18,4,20,0.00
2012-3-5,37.0,31.1,24.4,24.3,21.5,17.6,81,68,54,30.43,30.01,21,6,24,0.01
2012-3-6,67.5,51.8,34.0,37.9,30.0,23.0,65,45,27,30.32,30.02,32,12,40,0.00
2012-3-7,67.5,60.7,53.2,51.1,39.4,24.8,64,46,27,30.11,29.91,38,14,40,0.00
2012-3-8,63.7,45.7,35.6,55.9,36.3,23.7,91,70,46,30.35,29.86,31,9,32,0.48
2012-3-9,44.4,37.6,30.6,26.2,16.6,7.3,69,44,22,30.55,30.33,24,7,29,0.00
2012-3-10,57.4,42.2,27.7,27.9,22.2,15.4,68,47,31,30.54,30.30,20,5,23,0.00
2012-3-11,68.2,54.9,37.9,45.3,32.8,24.6,63,44,33,30.33,30.06,20,5,21,0.00
2012-3-12,75.0,64.1,54.1,57.9,54.2,45.3,90,72,48,30.06,29.77,31,11,35,0.08
2012-3-13,78.6,63.1,47.5,51.4,47.8,42.6,94,62,29,30.09,29.94,10,1,11,0.00
2012-3-14,80.1,69.3,57.9,60.6,56.6,48.7,84,65,49,30.09,29.96,21,7,24,0.00
2012-3-15,81.3,70.4,63.0,61.5,59.2,53.8,84,69,46,30.06,29.96,23,6,27,0.00
2012-3-16,80.2,68.2,58.6,57.6,55.2,48.7,89,66,35,30.09,30.01,13,4,15,0.00
2012-3-17,79.9,67.4,54.9,62.2,57.9,51.8,94,73,52,30.10,29.97,22,4,24,0.07
2012-3-18,81.0,69.3,60.1,63.5,59.0,55.9,89,71,48,30.09,29.96,22,4,23,0.00
2012-3-19,82.8,73.8,66.6,61.0,58.1,51.6,77,59,43,30.04,29.91,20,7,24,0.00
2012-3-20,84.0,75.6,67.6,56.7,54.6,51.3,62,49,37,30.04,29.94,23,6,28,0.00
2012-3-21,85.6,75.5,64.2,56.7,54.4,49.5,72,50,29,30.09,29.98,19,4,22,0.00
2012-3-22,81.0,71.8,63.5,58.8,55.4,52.0,75,57,42,30.07,29.97,19,4,20,0.01
2012-3-23,73.8,62.2,53.8,61.9,56.2,46.6,93,81,54,29.99,29.75,33,3,36,0.36
2012-3-24,65.7,57.5,51.8,55.9,52.1,49.1,94,83,64,29.91,29.75,11,3,14,0.00
2012-3-25,71.8,59.8,52.7,57.2,53.2,50.2,95,80,55,30.09,29.90,15,4,15,0.00
2012-3-26,56.8,50.1,45.0,51.3,37.4,30.9,87,63,41,30.29,30.08,19,7,21,0.00
2012-3-27,73.2,55.6,39.0,49.1,35.2,26.1,64,48,28,30.26,29.87,24,7,24,0.00
2012-3-28,74.8,66.3,51.3,55.8,43.6,33.3,77,48,24,29.99,29.84,29,8,34,0.00
2012-3-29,63.9,52.7,43.2,48.0,40.7,36.9,81,65,42,30.09,29.91,13,3,15,0.04
2012-3-30,75.4,60.2,47.7,59.7,49.2,41.9,83,68,44,29.92,29.67,26,8,26,0.00
2012-3-31,62.1,50.3,43.0,46.2,42.7,38.5,89,76,54,29.94,29.83,14,5,16,0.00
2012-4-1,84.4,64.7,48.7,63.5,55.2,44.1,94,73,47,29.84,29.59,25,5,28,0.09
2012-4-2,72.0,62.3,52.5,55.4,49.7,43.0,84,65,47,29.87,29.68,24,7,24,0.00
2012-4-3,89.1,68.6,52.7,61.0,50.5,43.7,75,54,33,29.88,29.73,21,4,25,0.00
2012-4-4,69.4,58.3,48.7,51.3,45.3,34.0,83,64,30,29.86,29.76,21,8,25,0.00
2012-4-5,60.3,50.7,40.3,37.0,32.8,27.7,75,52,30,30.09,29.82,21,8,26,0.00
2012-4-6,62.6,48.4,34.3,33.1,29.1,24.6,81,51,25,30.27,30.09,18,5,21,0.00
2012-4-7,69.3,54.2,35.4,38.7,30.7,23.5,78,45,19,30.32,30.14,12,3,13,0.00
2012-4-8,68.4,58.2,47.7,46.6,30.5,17.6,85,42,15,30.29,30.10,23,7,26,0.00
2012-4-9,66.4,57.9,49.8,34.2,23.9,16.2,50,29,15,30.10,29.94,29,9,30,0.00
2012-4-10,52.3,45.0,35.4,24.3,19.6,14.0,60,37,24,30.14,30.00,28,9,32,0.00
2012-4-11,56.1,43.3,30.0,25.7,23.0,20.1,73,47,27,30.28,30.14,18,4,21,0.00
2012-4-12,64.4,48.4,29.7,31.3,27.7,23.9,88,50,23,30.31,30.13,13,2,13,0.00
2012-4-13,63.7,52.7,37.8,41.5,33.3,26.8,75,50,25,30.21,30.05,18,5,23,0.00
2012-4-14,63.9,58.4,54.3,60.3,52.5,39.0,95,82,51,30.06,29.82,15,4,15,0.35
2012-4-15,76.6,70.9,63.9,62.1,59.1,55.8,87,67,59,29.82,29.64,32,12,34,0.01
2012-4-16,72.1,58.1,45.7,60.3,48.4,41.5,92,71,49,30.23,29.62,30,8,36,0.43
2012-4-17,64.8,53.4,40.6,43.5,39.1,33.4,95,63,34,30.37,30.23,14,2,16,0.00
2012-4-18,72.1,58.2,41.7,46.4,41.5,37.0,85,57,34,30.27,30.01,14,4,18,0.00
2012-4-19,78.3,66.0,54.0,47.7,44.2,38.8,72,48,26,30.01,29.74,21,6,22,0.00
2012-4-20,66.4,53.5,43.2,53.6,45.0,38.3,92,75,46,29.95,29.68,23,8,23,0.18
2012-4-21,56.5,47.8,40.8,38.8,35.2,31.5,84,63,43,30.02,29.94,21,8,21,0.18
2012-4-22,56.3,47.3,38.8,39.6,30.2,21.6,85,55,27,30.06,29.92,26,8,29,0.00
2012-4-23,61.9,48.9,36.3,29.7,24.9,17.8,65,42,22,30.03,29.82,27,8,31,0.00
2012-4-24,61.2,52.6,40.5,44.1,33.3,18.1,71,51,20,29.83,29.69,13,3,14,0.00
2012-4-25,75.4,62.5,48.2,58.5,50.9,42.4,85,67,46,29.74,29.56,16,4,19,0.00
2012-4-26,68.4,59.2,41.4,59.9,46.2,22.6,90,63,42,30.11,29.54,27,9,29,0.00
2012-4-27,60.1,49.3,37.9,27.1,21.1,15.6,53,34,19,30.26,30.04,18,5,20,0.00
2012-4-28,55.6,49.3,45.9,47.3,40.9,26.4,87,74,37,30.13,29.92,20,6,23,0.12
2012-4-29,61.5,52.8,45.1,53.2,46.8,39.4,89,80,72,30.21,30.00,19,4,20,0.05
2012-4-30,75.9,64.7,57.2,64.8,59.5,52.9,94,84,64,30.00,29.87,22,4,22,0.49
2012-5-1,73.2,62.6,57.6,67.3,59.5,54.1,96,90,81,30.00,29.79,14,2,19,1.23
2012-5-2,84.9,74.9,61.2,68.0,64.1,57.4,97,71,41,29.96,29.82,23,5,30,0.00
2012-5-3,87.8,78.0,69.3,65.5,62.6,56.5,84,61,42,29.98,29.81,26,8,28,0.00
2012-5-4,84.2,72.9,63.9,66.9,63.9,57.2,91,75,51,29.95,29.82,14,4,19,0.00
2012-5-5,88.3,71.5,56.1,66.9,61.6,53.8,93,73,44,29.95,29.86,11,3,15,0.00
2012-5-6,88.7,73.3,63.1,70.0,64.7,60.4,92,76,52,29.96,29.81,26,4,28,0.03
2012-5-7,75.9,67.9,61.3,67.1,62.8,57.9,93,84,69,29.87,29.76,19,5,19,0.07
2012-5-8,72.7,64.4,56.8,58.3,48.7,40.1,95,61,32,29.90,29.82,21,4,21,0.00
2012-5-9,66.9,58.7,49.1,52.0,46.1,42.3,83,64,42,29.95,29.86,23,5,23,0.01
2012-5-10,71.2,58.5,42.1,47.1,39.9,34.9,95,56,29,30.04,29.94,14,3,19,0.00
2012-5-11,78.4,63.0,43.5,47.5,40.9,35.8,86,49,22,30.16,30.04,13,2,14,0.00
2012-5-12,79.0,65.6,53.8,53.8,48.7,43.7,82,58,31,30.21,30.12,13,3,15,0.00
2012-5-13,80.1,65.2,52.0,54.7,48.5,41.2,76,56,33,30.17,30.02,20,5,20,0.00
2012-5-14,81.3,68.3,55.9,54.3,40.0,26.6,58,39,15,30.08,29.97,12,4,13,0.00
2012-5-15,84.9,69.7,48.4,47.3,40.0,32.4,87,40,17,30.02,29.87,15,3,18,0.00
2012-5-16,74.5,65.9,53.4,51.8,38.8,26.1,78,39,18,30.08,29.86,23,8,24,0.00
2012-5-17,76.8,63.4,48.4,41.7,36.3,28.8,65,39,21,30.14,30.01,15,3,18,0.00
2012-5-18,84.4,69.3,48.9,54.7,46.1,39.2,74,46,22,30.08,29.95,12,2,13,0.00
2012-5-19,92.1,77.4,59.2,63.1,57.1,53.6,82,52,30,30.05,29.96,14,3,14,0.00
2012-5-20,92.7,77.4,64.4,67.1,60.1,53.4,86,58,27,30.06,29.91,22,4,25,0.40
2012-5-21,66.9,63.0,55.0,60.8,53.0,41.7,92,71,44,30.09,29.99,23,7,25,0.01
2012-5-22,74.5,62.3,50.2,47.5,43.6,39.9,80,53,31,30.06,29.90,19,6,20,0.00
2012-5-23,82.8,67.8,46.2,53.1,46.5,41.0,92,52,25,29.91,29.76,15,3,15,0.00
2012-5-24,88.3,76.2,59.7,60.3,55.8,49.6,84,52,30,29.82,29.62,25,6,26,0.00
2012-5-25,92.1,81.5,74.5,69.4,61.9,53.8,68,53,32,30.00,29.74,13,3,15,0.00
2012-5-26,94.5,82.2,68.2,68.7,62.7,52.7,76,53,36,30.07,29.95,19,3,20,0.00
2012-5-27,96.3,84.4,72.9,68.0,60.9,51.4,80,49,24,29.98,29.85,18,5,19,0.00
2012-5-28,93.9,84.4,73.9,64.9,61.0,53.4,68,47,28,29.87,29.71,26,7,27,0.00
2012-5-29,85.1,76.1,66.2,65.8,56.7,46.0,87,54,26,29.86,29.69,15,3,19,0.03
2012-5-30,77.0,68.7,58.3,52.7,43.9,38.8,63,42,26,29.91,29.83,24,6,24,0.00
2012-5-31,65.3,56.8,52.0,54.0,49.4,44.1,94,77,55,29.92,29.73,20,6,22,0.45
2012-6-1,62.4,55.4,51.8,51.1,48.8,45.5,94,80,56,29.84,29.70,21,6,23,0.05
2012-6-2,72.0,60.1,49.1,57.0,49.4,43.9,94,70,37,29.86,29.78,21,4,24,0.08
2012-6-3,82.0,68.7,53.2,60.8,52.7,47.5,94,62,32,29.88,29.78,15,3,16,0.01
2012-6-4,75.4,67.0,58.6,62.4,56.3,47.7,87,69,46,29.88,29.76,15,3,19,0.05
2012-6-5,75.4,65.0,54.0,54.3,49.9,47.3,83,60,39,29.98,29.86,18,4,21,0.00
2012-6-6,77.7,65.6,48.9,50.7,48.1,44.2,93,57,32,30.07,29.97,14,3,19,0.00
2012-6-7,85.3,70.4,52.5,54.0,48.8,43.0,87,51,24,30.11,30.02,11,1,11,0.00
2012-6-8,87.3,72.6,53.2,55.4,49.5,42.6,90,50,22,30.09,29.93,12,2,15,0.00
2012-6-9,89.2,75.8,57.7,56.5,52.4,47.1,80,48,25,29.98,29.86,15,3,18,0.00
2012-6-10,90.0,78.7,63.0,62.2,59.9,56.1,85,54,36,29.97,29.87,22,4,22,0.00
2012-6-11,85.6,75.6,68.7,69.4,65.3,61.0,86,71,52,29.90,29.71,19,4,24,0.00
2012-6-12,81.5,72.6,62.8,65.8,48.4,35.6,91,47,20,30.09,29.86,21,7,23,0.00
2012-6-13,79.7,67.9,55.6,53.8,49.1,45.1,71,52,35,30.15,30.04,11,4,14,0.00
2012-6-14,87.4,72.9,56.3,52.0,47.2,43.0,66,43,22,30.11,29.97,13,3,13,0.00
2012-6-15,92.1,75.9,55.8,55.2,51.3,45.1,81,46,21,30.08,29.99,10,2,11,0.00
2012-6-16,91.2,78.7,68.7,72.5,64.6,53.4,84,63,47,30.06,29.90,24,5,24,0.01
2012-6-17,87.4,76.6,67.6,69.4,66.6,64.0,94,73,49,29.97,29.80,21,3,24,0.35
2012-6-18,93.0,82.2,72.1,68.2,65.9,62.4,86,60,39,29.88,29.75,28,8,30,0.00
2012-6-19,93.6,83.8,73.0,67.6,63.8,60.6,70,52,36,29.99,29.88,23,7,25,0.00
2012-6-20,92.8,83.3,73.0,63.9,61.2,56.8,67,49,31,30.06,29.91,23,7,24,0.00
2012-6-21,90.0,78.2,66.4,70.3,64.5,60.1,92,64,43,29.95,29.87,22,6,25,0.07
2012-6-22,83.5,73.6,64.2,63.7,57.3,50.5,91,60,33,29.99,29.93,16,4,16,0.00
2012-6-23,86.7,74.4,58.8,60.4,56.3,50.7,93,57,31,30.03,29.96,10,1,11,0.00
2012-6-24,92.5,79.4,64.8,66.6,60.7,53.1,87,56,29,29.99,29.87,9,2,11,0.00
2012-6-25,81.7,74.2,61.3,67.1,53.7,35.6,82,53,20,29.99,29.87,22,7,23,0.00
2012-6-26,81.9,69.5,55.6,52.3,50.0,47.5,81,53,32,30.04,29.91,15,3,16,0.00
2012-6-27,91.8,76.2,56.5,54.1,51.3,48.2,81,46,23,30.01,29.81,20,5,22,0.00
2012-6-28,100.6,87.0,72.5,72.1,63.7,52.2,66,47,39,29.86,29.77,22,5,26,0.00
2012-6-29,99.5,85.7,77.2,80.4,72.3,65.3,83,66,46,29.84,29.73,25,2,27,0.00
2012-6-30,92.8,79.0,68.9,74.7,69.2,64.4,91,74,42,29.85,29.76,15,2,20,0.14
2012-7-1,94.8,80.7,70.5,74.8,71.2,68.4,94,75,47,29.93,29.83,18,2,19,0.00
2012-7-2,99.7,83.4,69.8,74.5,68.5,62.1,94,64,35,29.98,29.88,20,2,24,0.00
2012-7-3,97.2,84.1,69.4,72.9,67.4,62.4,83,60,33,29.96,29.81,14,4,18,0.00
2012-7-4,101.1,88.6,74.7,73.0,70.4,64.4,85,58,33,29.90,29.83,15,3,18,0.00
2012-7-5,103.1,89.9,75.0,72.5,67.8,59.7,85,53,26,29.93,29.86,16,3,21,0.00
2012-7-6,104.5,90.6,75.6,74.5,70.4,66.2,87,55,30,29.96,29.86,11,2,12,0.00
2012-7-7,104.2,90.5,77.0,75.7,71.3,65.1,87,58,30,29.94,29.85,15,3,18,0.00
2012-7-8,87.6,76.4,69.4,72.9,67.6,58.1,89,75,53,30.01,29.91,21,6,21,0.01
2012-7-9,91.2,78.4,64.9,63.5,60.3,53.8,83,57,30,30.02,29.94,14,3,16,0.00
2012-7-10,91.2,79.1,68.5,61.5,57.8,53.1,69,50,29,30.04,29.98,20,5,20,0.00
2012-7-11,91.0,78.6,64.0,60.8,58.3,55.0,80,53,31,30.08,29.99,11,3,12,0.00
2012-7-12,93.7,80.8,65.8,63.0,59.3,54.0,69,50,33,30.05,29.97,12,2,14,0.00
2012-7-13,93.6,82.2,68.5,69.6,65.5,61.3,89,60,36,30.05,29.94,13,3,13,0.00
2012-7-14,88.3,77.9,71.2,72.5,69.0,65.7,88,75,54,30.06,29.96,15,2,15,0.03
2012-7-15,93.6,80.0,70.2,73.2,69.3,66.6,94,72,44,30.07,29.96,18,4,22,0.00
2012-7-16,95.9,85.0,73.4,73.2,70.0,65.7,88,63,39,30.01,29.84,18,3,18,0.00
2012-7-17,99.3,84.8,75.9,75.2,71.8,67.3,83,66,38,29.88,29.80,14,3,19,0.00
2012-7-18,100.2,87.3,75.7,74.8,71.4,65.8,87,63,33,29.90,29.78,23,4,26,0.00
2012-7-19,97.9,83.8,74.7,75.0,72.2,69.4,89,70,43,29.89,29.74,25,6,25,0.00
2012-7-20,82.4,74.9,68.7,70.2,67.0,62.8,90,77,55,30.02,29.86,16,6,18,0.01
2012-7-21,88.5,76.3,61.5,66.7,61.8,49.6,94,65,29,30.10,30.00,14,2,15,0.00
2012-7-22,95.5,83.4,68.5,66.4,62.8,60.1,83,52,32,30.11,29.99,12,2,13,0.00
2012-7-23,99.9,89.3,78.3,71.6,67.5,60.1,64,50,37,30.03,29.88,20,6,21,0.00
2012-7-24,94.6,84.8,75.9,71.8,69.5,63.5,84,61,38,29.94,29.85,16,5,16,0.00
2012-7-25,101.8,87.4,72.9,74.1,70.0,65.8,92,61,33,29.90,29.62,18,5,22,0.00
2012-7-26,90.1,84.4,75.9,72.1,68.7,65.1,72,60,46,29.76,29.61,21,6,21,0.00
2012-7-27,91.8,79.0,66.9,71.2,63.4,56.5,88,61,35,29.94,29.76,25,5,26,0.05
2012-7-28,85.3,75.2,66.6,64.8,60.6,55.4,87,63,38,30.08,29.93,16,4,18,0.00
2012-7-29,89.6,76.3,60.6,62.2,58.7,56.1,87,58,36,30.10,29.93,14,2,14,0.00
2012-7-30,94.5,81.2,66.6,66.7,62.8,57.6,77,55,36,29.96,29.84,15,2,16,0.00
2012-7-31,94.5,80.1,69.3,72.5,66.6,63.3,85,65,42,29.93,29.81,19,4,19,0.00
2012-8-1,90.9,78.4,65.1,64.6,61.4,57.6,87,59,33,29.93,29.83,13,3,14,0.00
2012-8-2,100.0,81.0,60.6,68.7,58.4,49.8,88,52,20,29.88,29.73,18,3,18,0.00
2012-8-3,94.6,82.3,68.2,68.9,65.8,61.9,90,61,36,29.85,29.79,16,3,19,0.00
2012-8-4,96.1,84.0,72.1,76.1,70.0,60.8,92,65,39,29.89,29.77,25,5,25,0.00
2012-8-5,87.6,79.2,70.9,74.8,63.9,55.6,94,63,35,30.11,29.80,28,5,28,1.02
2012-8-6,88.5,75.8,62.4,61.9,58.9,52.3,92,59,30,30.14,29.98,12,2,12,0.00
2012-8-7,94.6,79.1,61.3,64.9,60.0,57.0,90,57,31,29.99,29.89,13,2,15,0.00
2012-8-8,97.2,80.4,69.1,68.4,64.1,55.8,89,61,26,29.94,29.86,23,3,23,0.07
2012-8-9,90.0,73.9,66.2,72.0,66.5,62.2,94,80,42,29.91,29.71,13,3,18,0.30
2012-8-10,77.7,68.3,60.4,64.4,57.6,50.5,92,71,41,29.94,29.75,26,7,26,0.00
2012-8-11,81.7,67.8,55.6,54.7,50.0,44.8,88,57,29,29.99,29.91,20,4,22,0.00
2012-8-12,81.3,69.3,54.7,60.4,53.9,45.7,95,63,30,30.03,29.94,11,2,13,0.00
2012-8-13,76.5,67.8,62.4,65.7,62.2,56.8,94,83,60,29.97,29.86,12,2,14,0.20
2012-8-14,82.2,70.7,63.7,62.4,60.9,55.8,93,74,42,29.96,29.88,12,3,12,0.20
2012-8-15,88.3,75.7,61.2,62.6,58.7,49.8,92,60,27,29.97,29.88,12,2,14,0.00
2012-8-16,76.5,70.0,66.6,66.9,62.7,56.8,95,79,55,29.97,29.76,26,4,30,2.54
2012-8-17,77.2,67.7,58.1,65.5,54.9,49.3,93,66,39,29.99,29.90,16,4,16,0.00
2012-8-18,79.0,66.3,52.5,55.4,50.9,43.5,95,62,33,30.01,29.90,13,2,14,0.00
2012-8-19,80.1,66.5,56.5,57.4,53.0,48.4,92,64,35,29.95,29.89,12,1,14,0.07
2012-8-20,81.9,66.0,53.8,59.5,55.4,50.2,96,73,34,29.98,29.89,20,2,22,0.14
2012-8-21,81.5,67.3,54.5,61.0,54.5,47.8,96,69,34,30.07,29.96,11,1,11,0.01
2012-8-22,86.5,70.5,54.1,59.4,54.9,51.1,94,63,31,30.11,30.02,11,1,11,0.00
2012-8-23,90.9,74.8,58.5,62.2,57.2,50.7,90,60,26,30.10,30.00,11,1,11,0.00
2012-8-24,91.9,77.2,61.0,65.1,60.5,56.8,89,60,32,30.04,29.94,11,2,13,0.00
2012-8-25,92.8,78.9,63.5,65.5,62.0,57.2,91,60,32,30.06,29.97,14,2,19,0.00
2012-8-26,86.4,76.6,67.1,71.8,67.2,61.5,95,74,57,30.05,29.92,18,4,22,1.70
2012-8-27,86.5,76.7,67.3,71.8,67.7,61.0,96,77,44,30.04,29.92,16,4,23,0.20
2012-8-28,86.5,74.2,60.4,64.6,60.0,55.4,95,65,37,30.11,29.98,14,2,15,0.00
2012-8-29,87.6,74.9,63.0,64.9,61.9,59.5,89,67,43,30.07,29.96,10,1,13,0.00
2012-8-30,90.7,75.3,61.9,62.4,59.2,55.8,86,61,32,30.05,29.96,12,2,12,0.00
2012-8-31,85.5,77.3,66.4,73.8,69.0,59.2,89,76,65,30.09,29.97,14,2,14,0.00
2012-9-1,83.8,77.3,73.6,75.4,73.0,71.4,95,87,73,30.01,29.83,14,4,14,0.46
2012-9-2,76.3,73.8,72.1,73.6,71.8,70.2,95,93,88,29.83,29.74,15,4,19,1.11
2012-9-3,86.2,76.9,72.0,73.6,71.5,69.1,94,84,63,29.86,29.78,13,3,16,0.00
2012-9-4,92.1,80.3,69.4,74.7,71.5,68.0,96,76,51,29.87,29.79,9,-9,11,0.00
2012-9-5,79.5,72.3,67.5,71.6,66.9,63.5,93,83,68,29.89,29.76,30,3,30,0.14
2012-9-6,90.7,76.5,66.2,73.2,66.5,60.4,96,74,43,29.92,29.83,12,2,13,0.00
2012-9-7,72.0,67.8,64.9,68.2,64.6,62.6,95,90,77,29.91,29.65,29,4,30,1.30
2012-9-8,73.2,64.0,56.1,63.1,52.6,47.8,92,69,42,29.91,29.75,20,6,21,0.00
2012-9-9,75.4,63.8,55.6,56.7,53.1,49.5,91,70,41,30.13,29.84,18,5,23,0.00
2012-9-10,78.3,63.9,51.3,54.0,50.6,44.8,95,67,32,30.21,30.10,10,2,11,0.00
2012-9-11,83.1,67.4,52.2,57.2,53.7,49.8,96,66,36,30.20,30.09,16,3,18,0.00
2012-9-12,85.8,72.3,56.1,62.1,57.3,52.9,91,62,37,30.20,30.10,18,3,19,0.00
2012-9-13,84.2,72.6,62.8,64.6,60.2,57.6,85,66,46,30.23,30.12,18,4,20,0.00
2012-9-14,73.0,62.6,55.8,57.9,52.5,42.6,94,73,34,30.32,30.21,20,4,20,0.24
2012-9-15,78.3,63.5,51.1,56.5,50.9,45.1,96,68,34,30.32,30.14,9,1,9,0.01
2012-9-16,78.6,64.4,49.5,55.2,51.4,47.5,95,67,35,30.15,29.97,13,2,14,0.00
2012-9-17,78.6,66.2,54.7,65.3,60.1,52.3,95,82,53,29.98,29.73,14,2,14,0.25
2012-9-18,64.2,57.1,46.2,61.3,44.5,33.4,93,66,33,30.06,29.73,24,4,27,0.00
2012-9-19,72.0,57.6,41.0,44.4,40.4,36.3,92,58,31,30.13,29.95,21,5,24,0.00
2012-9-20,77.4,64.8,50.7,53.1,43.7,35.2,76,49,23,29.97,29.87,20,5,24,0.00
2012-9-21,69.8,56.0,48.4,52.9,47.0,41.5,93,74,41,29.96,29.69,22,2,30,0.60
2012-9-22,59.2,51.1,42.8,52.0,41.0,28.9,96,73,36,30.19,29.81,30,5,35,0.01
2012-9-23,64.8,51.5,39.6,41.7,36.9,30.2,93,62,29,30.27,30.17,18,3,18,0.00
2012-9-24,70.5,54.3,36.1,41.4,36.4,30.7,94,58,25,30.25,29.98,19,3,22,0.00
2012-9-25,71.1,62.6,55.8,64.4,55.8,41.2,94,79,57,29.99,29.84,14,4,15,0.07
2012-9-26,72.1,66.5,60.3,65.8,62.6,53.6,94,87,76,30.08,29.87,15,4,18,0.24
2012-9-27,76.8,63.5,54.9,55.2,51.0,44.2,83,65,44,30.16,30.06,12,4,12,0.00
2012-9-28,72.0,59.6,50.9,52.2,49.5,46.9,88,71,45,30.13,30.04,14,4,16,0.00
2012-9-29,76.8,60.9,48.7,52.7,48.2,42.3,91,67,30,30.11,29.92,12,-1,12,0.00
2012-9-30,71.1,59.8,48.9,53.2,46.2,42.1,88,64,36,29.93,29.85,19,3,20,0.00
2012-10-1,62.8,57.0,49.8,49.8,46.3,43.0,82,68,56,29.89,29.75,14,4,16,0.00
2012-10-2,59.5,57.6,55.9,57.9,53.1,47.5,96,85,68,29.85,29.73,18,6,21,0.07
2012-10-3,71.2,61.5,57.0,58.8,55.6,50.9,96,83,49,30.05,29.84,16,3,18,0.02
2012-10-4,81.1,66.5,53.4,60.1,55.2,49.8,93,70,41,30.15,30.02,23,5,26,0.01
2012-10-5,53.2,45.7,40.8,49.8,42.6,32.2,93,89,77,30.20,30.08,20,3,22,0.80
2012-10-6,51.3,42.7,34.9,37.6,33.4,31.5,92,71,49,30.20,30.11,18,1,19,0.01
2012-10-7,51.3,42.4,33.4,34.3,31.5,27.0,91,67,40,30.22,30.16,14,3,15,0.00
2012-10-8,58.8,44.1,28.2,37.0,31.2,26.4,95,65,34,30.24,30.09,16,-1,18,0.00
2012-10-9,65.1,53.3,41.0,44.8,39.9,34.0,81,62,43,30.09,29.88,23,7,26,0.00
2012-10-10,54.0,45.6,36.3,42.6,33.9,24.6,90,67,35,30.23,29.94,27,6,27,0.01
2012-10-11,63.3,49.6,33.1,40.3,34.5,30.2,91,59,35,30.26,30.12,22,5,23,0.00
2012-10-12,60.8,51.5,45.3,43.2,37.8,32.9,85,62,36,30.40,30.18,16,4,20,0.00
2012-10-13,70.0,58.3,46.0,64.2,52.1,35.8,95,80,67,30.26,29.84,16,5,20,0.40
2012-10-14,73.6,65.7,53.2,63.3,58.3,45.9,88,78,57,29.84,29.54,35,11,38,0.21
2012-10-15,61.7,51.8,43.2,46.0,41.4,35.8,92,70,42,29.97,29.81,19,5,21,0.00
2012-10-16,70.5,56.5,38.7,53.1,45.2,37.4,96,69,45,29.97,29.64,23,6,24,0.00
2012-10-17,69.3,63.1,57.0,56.5,52.7,48.0,93,70,55,29.66,29.35,31,8,31,0.64
2012-10-18,60.1,52.0,45.9,51.6,41.8,31.3,92,71,35,29.61,29.39,29,8,32,0.23
2012-10-19,49.6,47.7,45.5,46.2,44.6,42.3,94,89,82,29.70,29.47,18,6,21,0.38
2012-10-20,58.3,48.5,43.3,45.5,42.7,40.3,95,82,53,29.96,29.69,13,2,13,0.02
2012-10-21,73.0,56.8,39.4,51.6,46.7,37.8,96,72,44,30.04,29.96,16,3,18,0.01
2012-10-22,71.2,65.7,59.7,61.9,56.9,50.7,93,74,58,30.06,29.88,20,5,22,0.36
2012-10-23,67.6,64.8,59.7,61.7,57.7,52.0,94,79,58,29.99,29.89,19,6,19,0.39
2012-10-24,78.6,68.8,61.9,64.9,60.0,55.9,84,74,61,30.00,29.90,19,6,21,0.00
2012-10-25,79.2,67.4,45.9,62.1,57.2,42.8,90,71,55,30.06,29.77,28,3,33,0.06
2012-10-26,49.5,43.7,38.1,42.6,35.5,32.5,91,73,56,30.28,30.04,25,1,25,0.19
2012-10-27,51.4,42.3,35.4,36.7,33.7,31.3,86,72,55,30.28,30.19,22,7,22,0.00
2012-10-28,50.2,41.6,35.1,35.2,31.8,28.6,87,69,46,30.23,30.17,21,7,26,0.00
2012-10-29,54.0,43.6,34.0,36.5,32.7,28.4,88,67,44,30.22,29.98,28,10,29,0.00
2012-10-30,47.3,42.3,37.2,31.1,29.1,26.4,72,60,51,29.98,29.75,34,-2,38,0.00
2012-10-31,48.9,41.1,33.6,32.9,28.1,22.5,74,60,50,29.89,29.78,21,9,23,0.00
2012-11-1,56.7,44.3,31.8,35.8,26.3,18.9,78,51,27,29.95,29.83,19,-18,19,0.00
2012-11-2,52.2,43.2,35.6,35.8,31.5,27.0,83,65,39,30.13,29.86,12,-6,15,0.00
2012-11-3,41.0,38.8,35.1,36.5,34.7,30.9,91,85,81,30.20,30.11,11,-14,12,0.08
2012-11-4,49.1,38.8,31.6,36.7,31.4,28.8,93,76,48,30.25,30.17,19,3,19,0.01
2012-11-5,47.1,36.9,28.8,32.4,29.7,26.8,94,76,52,30.21,30.10,12,-5,14,0.00
2012-11-6,46.8,38.5,28.2,38.8,32.8,25.2,94,81,59,30.11,29.90,11,-2,11,0.09
2012-11-7,45.9,42.8,40.5,40.5,39.6,38.3,95,89,80,30.17,29.88,11,-7,12,0.09
2012-11-8,48.9,43.1,39.4,40.1,37.5,35.6,91,81,64,30.25,30.12,10,-1,13,0.01
2012-11-9,63.1,51.3,37.0,47.1,41.9,34.3,92,72,55,30.15,29.98,21,-2,22,0.00
2012-11-10,73.0,62.0,54.0,52.7,47.7,43.7,72,60,43,30.05,29.94,27,9,32,0.00
2012-11-11,68.7,61.1,51.6,54.3,48.9,45.3,93,65,55,30.03,29.83,31,11,38,0.23
2012-11-12,51.6,36.5,31.3,50.0,28.6,22.5,94,74,52,30.41,29.94,22,-25,25,0.35
2012-11-13,33.3,29.7,27.3,26.8,24.9,23.4,87,82,72,30.53,30.40,6,-29,8,0.00
2012-11-14,45.1,34.3,27.0,28.9,26.6,23.5,89,75,51,30.56,30.39,9,-56,10,0.00
2012-11-15,50.2,35.7,24.4,33.1,28.6,22.5,94,77,50,30.43,30.34,7,-22,7,0.01
2012-11-16,53.1,38.7,25.9,35.4,29.2,23.9,94,72,41,30.50,30.39,7,-3,7,0.00
2012-11-17,57.4,41.7,27.9,37.8,32.0,25.5,92,70,44,30.57,30.43,11,-13,13,0.00
2012-11-18,61.2,44.7,31.8,36.0,32.3,28.4,89,65,34,30.45,30.33,7,-6,9,0.00
2012-11-19,58.5,47.6,35.1,42.6,36.8,30.7,86,68,47,30.34,30.13,11,-16,11,0.02
2012-11-20,57.0,52.9,48.4,47.8,44.1,39.4,84,72,62,30.16,30.06,9,2,9,0.00
2012-11-21,62.2,49.0,37.8,49.3,43.8,36.5,96,83,60,30.27,30.15,8,1,9,0.00
2012-11-22,62.1,53.5,45.3,51.1,45.8,41.9,90,76,57,30.16,29.90,27,8,28,0.09
2012-11-23,54.1,35.7,25.2,47.3,25.9,16.9,81,67,57,30.26,29.94,29,2,33,0.00
2012-11-24,34.0,28.5,25.3,23.5,20.3,18.1,80,71,59,30.31,30.07,13,4,14,0.00
2012-11-25,48.2,39.6,28.9,31.5,27.8,23.2,80,63,49,30.08,29.91,16,4,19,0.00
2012-11-26,44.8,36.1,31.5,30.6,26.5,21.9,87,68,48,30.35,30.08,16,-6,20,0.00
2012-11-27,39.2,31.3,23.4,23.7,20.9,17.2,83,66,49,30.44,30.32,9,-2,9,0.00
2012-11-28,47.1,35.8,26.4,27.1,24.4,21.6,82,65,44,30.44,30.32,9,2,9,0.00
2012-11-29,52.2,42.0,31.8,35.4,30.5,24.4,76,64,51,30.35,30.13,21,2,22,0.00
2012-11-30,59.4,48.0,40.3,39.6,34.6,29.3,87,61,44,30.14,30.06,16,4,18,0.00
2012-12-1,63.7,52.4,35.8,51.3,44.6,33.4,94,76,62,30.15,29.97,24,-1,25,0.00
2012-12-2,67.5,60.5,56.7,58.1,54.4,48.4,95,81,63,30.06,29.93,19,5,23,0.01
2012-12-3,72.9,64.8,58.3,61.3,59.0,56.8,95,82,65,30.04,29.88,29,9,31,0.01
2012-12-4,63.7,51.6,41.9,57.0,45.6,37.0,93,80,60,30.25,29.92,20,-3,22,0.13
2012-12-5,49.5,39.6,33.4,36.9,31.4,28.8,84,73,50,30.42,30.22,11,-2,11,0.00
2012-12-6,47.8,39.5,30.9,40.1,33.5,27.7,88,79,66,30.22,29.96,8,-16,10,0.00
2012-12-7,49.1,46.0,44.4,46.0,44.0,40.3,96,93,82,29.97,29.83,10,-5,11,0.40
2012-12-8,45.9,43.3,39.0,44.6,41.3,36.3,97,93,86,30.04,29.82,12,-20,13,0.00
2012-12-9,51.4,44.1,39.0,50.4,42.4,36.3,97,94,85,30.04,29.72,18,1,18,0.31
2012-12-10,40.8,32.0,29.7,36.7,28.4,25.3,90,86,81,30.00,29.77,19,-8,20,0.00
2012-12-11,36.7,30.7,24.3,26.8,24.6,21.7,90,78,58,30.24,30.00,20,-7,20,0.00
2012-12-12,45.3,34.4,22.3,29.5,25.6,19.8,92,71,50,30.38,30.24,10,-19,12,0.00
2012-12-13,48.2,39.2,32.4,30.6,27.5,25.3,78,64,43,30.37,30.19,18,-2,19,0.00
2012-12-14,51.6,42.4,33.6,35.4,31.1,26.2,75,64,51,30.25,30.06,9,-12,11,0.00
2012-12-15,55.0,48.4,42.1,51.6,43.3,31.6,92,83,62,30.07,29.64,24,0,24,0.24
2012-12-16,54.3,47.3,40.8,51.3,44.0,37.0,95,88,81,29.74,29.64,23,-14,23,0.00
2012-12-17,40.8,38.3,34.9,37.2,35.7,33.1,94,90,86,29.75,29.62,11,-12,11,0.08
2012-12-18,46.0,39.3,35.2,39.6,34.5,30.9,95,83,74,29.85,29.63,23,-1,24,0.00
2012-12-19,43.5,39.3,35.2,40.3,35.2,31.8,91,85,81,30.08,29.70,21,-3,21,0.14
2012-12-20,54.9,40.0,30.6,51.3,36.9,26.8,94,89,71,29.73,29.15,35,-6,39,1.09
2012-12-21,30.7,25.5,19.8,27.0,20.3,14.9,86,80,73,30.25,29.60,37,-15,37,0.00
2012-12-22,33.1,25.3,16.2,23.7,18.9,12.7,87,77,64,30.30,29.98,12,-8,12,0.00
2012-12-23,40.3,31.9,23.2,31.8,26.9,20.7,92,82,68,30.01,29.93,10,-34,11,0.00
2012-12-24,34.3,31.8,29.7,30.4,28.1,26.8,90,86,76,30.08,29.81,16,-12,18,0.00
2012-12-25,36.3,32.8,30.0,27.7,26.4,24.4,88,77,65,30.27,30.07,21,-7,21,0.00
2012-12-26,32.0,30.6,28.6,29.7,27.2,24.4,94,87,77,30.07,29.86,30,-32,34,0.00
2012-12-27,32.2,30.0,28.6,26.8,25.7,24.6,87,84,79,30.22,30.07,14,-55,19,0.00
2012-12-28,33.1,31.0,30.0,28.8,27.7,26.2,94,87,83,30.16,29.87,10,-54,12,0.00
2012-12-29,31.8,28.3,20.3,30.0,24.6,16.2,94,86,75,30.31,29.85,22,-60,24,0.00
2012-12-30,31.8,23.7,14.2,23.7,18.4,11.7,90,80,69,30.44,30.24,15,-9,16,0.00
2012-12-31,36.0,32.1,26.1,31.1,27.8,22.1,94,84,72,30.24,30.08,18,-45,19,0.04
2013-1-1,26.1,21.9,14.5,22.5,16.8,8.6,89,81,72,30.25,30.10,11,-10,13,0.00